<?xml version="1.0" encoding="UTF-8" standalone="no" ?>
<gpx xmlns="http://www.topografix.com/GPX/1/1" xmlns:xsi="http://www.w3.org/2001/XMLSchema-instance" xsi:schemaLocation="http://www.topografix.com/GPX/1/1 http://www.topografix.com/GPX/1/1/gpx.xsd" version="1.1" creator="VisuGPX - https://www.visugpx.com">
  <metadata>
    <name>20200707 - Petite sortie avec le soleil.</name>
    <desc><![CDATA[Cette fois le vent nous a laissé tranquille .]]></desc>
  </metadata>
  <trk>
    <name><![CDATA[2020-07-07 17:19:13]]></name>
    <trkseg>
      <trkpt lat="50.1248" lon="3.67809">
        <ele>134.72</ele>
        <time>2020-07-07T14:33:38Z</time>
      </trkpt>
      <trkpt lat="50.1248" lon="3.67809">
        <ele>134.72</ele>
        <time>2020-07-07T14:33:41Z</time>
      </trkpt>
      <trkpt lat="50.12481" lon="3.6781">
        <ele>136.64</ele>
        <time>2020-07-07T14:33:46Z</time>
      </trkpt>
      <trkpt lat="50.12485" lon="3.67817">
        <ele>134.72</ele>
        <time>2020-07-07T14:33:50Z</time>
      </trkpt>
      <trkpt lat="50.1249" lon="3.67823">
        <ele>134.72</ele>
        <time>2020-07-07T14:33:52Z</time>
      </trkpt>
      <trkpt lat="50.12493" lon="3.67826">
        <ele>134.72</ele>
        <time>2020-07-07T14:33:53Z</time>
      </trkpt>
      <trkpt lat="50.12529" lon="3.67867">
        <ele>134.72</ele>
        <time>2020-07-07T14:34:07Z</time>
      </trkpt>
      <trkpt lat="50.1256" lon="3.67883">
        <ele>134.72</ele>
        <time>2020-07-07T14:34:16Z</time>
      </trkpt>
      <trkpt lat="50.12565" lon="3.67885">
        <ele>134.72</ele>
        <time>2020-07-07T14:34:17Z</time>
      </trkpt>
      <trkpt lat="50.12568" lon="3.67888">
        <ele>134.72</ele>
        <time>2020-07-07T14:34:18Z</time>
      </trkpt>
      <trkpt lat="50.1257" lon="3.67893">
        <ele>134.72</ele>
        <time>2020-07-07T14:34:19Z</time>
      </trkpt>
      <trkpt lat="50.12572" lon="3.67899">
        <ele>134.72</ele>
        <time>2020-07-07T14:34:20Z</time>
      </trkpt>
      <trkpt lat="50.12575" lon="3.67904">
        <ele>134.72</ele>
        <time>2020-07-07T14:34:21Z</time>
      </trkpt>
      <trkpt lat="50.12578" lon="3.6791">
        <ele>134.72</ele>
        <time>2020-07-07T14:34:22Z</time>
      </trkpt>
      <trkpt lat="50.12581" lon="3.67914">
        <ele>134.72</ele>
        <time>2020-07-07T14:34:23Z</time>
      </trkpt>
      <trkpt lat="50.12612" lon="3.67972">
        <ele>134.72</ele>
        <time>2020-07-07T14:34:35Z</time>
      </trkpt>
      <trkpt lat="50.12616" lon="3.67983">
        <ele>134.72</ele>
        <time>2020-07-07T14:34:37Z</time>
      </trkpt>
      <trkpt lat="50.12661" lon="3.68075">
        <ele>134.24</ele>
        <time>2020-07-07T14:34:53Z</time>
      </trkpt>
      <trkpt lat="50.12668" lon="3.68093">
        <ele>134.24</ele>
        <time>2020-07-07T14:34:56Z</time>
      </trkpt>
      <trkpt lat="50.1267" lon="3.68099">
        <ele>134.24</ele>
        <time>2020-07-07T14:34:57Z</time>
      </trkpt>
      <trkpt lat="50.12673" lon="3.68105">
        <ele>134.24</ele>
        <time>2020-07-07T14:34:58Z</time>
      </trkpt>
      <trkpt lat="50.127" lon="3.68158">
        <ele>135.2</ele>
        <time>2020-07-07T14:35:08Z</time>
      </trkpt>
      <trkpt lat="50.12703" lon="3.68163">
        <ele>135.2</ele>
        <time>2020-07-07T14:35:09Z</time>
      </trkpt>
      <trkpt lat="50.12708" lon="3.68172">
        <ele>135.2</ele>
        <time>2020-07-07T14:35:11Z</time>
      </trkpt>
      <trkpt lat="50.1271" lon="3.68177">
        <ele>135.2</ele>
        <time>2020-07-07T14:35:12Z</time>
      </trkpt>
      <trkpt lat="50.12712" lon="3.68182">
        <ele>135.68</ele>
        <time>2020-07-07T14:35:13Z</time>
      </trkpt>
      <trkpt lat="50.12735" lon="3.68251">
        <ele>136.16</ele>
        <time>2020-07-07T14:35:27Z</time>
      </trkpt>
      <trkpt lat="50.12767" lon="3.68341">
        <ele>136.16</ele>
        <time>2020-07-07T14:35:43Z</time>
      </trkpt>
      <trkpt lat="50.12795" lon="3.68419">
        <ele>137.13</ele>
        <time>2020-07-07T14:35:59Z</time>
      </trkpt>
      <trkpt lat="50.12802" lon="3.68438">
        <ele>137.61</ele>
        <time>2020-07-07T14:36:04Z</time>
      </trkpt>
      <trkpt lat="50.12805" lon="3.68439">
        <ele>137.61</ele>
        <time>2020-07-07T14:36:05Z</time>
      </trkpt>
      <trkpt lat="50.12807" lon="3.68438">
        <ele>137.61</ele>
        <time>2020-07-07T14:36:06Z</time>
      </trkpt>
      <trkpt lat="50.1281" lon="3.68437">
        <ele>137.61</ele>
        <time>2020-07-07T14:36:07Z</time>
      </trkpt>
      <trkpt lat="50.12813" lon="3.68436">
        <ele>137.61</ele>
        <time>2020-07-07T14:36:08Z</time>
      </trkpt>
      <trkpt lat="50.12817" lon="3.68434">
        <ele>137.61</ele>
        <time>2020-07-07T14:36:09Z</time>
      </trkpt>
      <trkpt lat="50.12821" lon="3.68431">
        <ele>137.61</ele>
        <time>2020-07-07T14:36:10Z</time>
      </trkpt>
      <trkpt lat="50.12825" lon="3.68428">
        <ele>138.09</ele>
        <time>2020-07-07T14:36:11Z</time>
      </trkpt>
      <trkpt lat="50.12828" lon="3.68425">
        <ele>138.09</ele>
        <time>2020-07-07T14:36:12Z</time>
      </trkpt>
      <trkpt lat="50.12858" lon="3.68389">
        <ele>139.05</ele>
        <time>2020-07-07T14:36:24Z</time>
      </trkpt>
      <trkpt lat="50.12861" lon="3.6839">
        <ele>139.53</ele>
        <time>2020-07-07T14:36:25Z</time>
      </trkpt>
      <trkpt lat="50.12865" lon="3.68394">
        <ele>139.53</ele>
        <time>2020-07-07T14:36:26Z</time>
      </trkpt>
      <trkpt lat="50.12867" lon="3.68397">
        <ele>140.01</ele>
        <time>2020-07-07T14:36:27Z</time>
      </trkpt>
      <trkpt lat="50.12869" lon="3.68402">
        <ele>140.01</ele>
        <time>2020-07-07T14:36:28Z</time>
      </trkpt>
      <trkpt lat="50.1287" lon="3.68406">
        <ele>140.01</ele>
        <time>2020-07-07T14:36:29Z</time>
      </trkpt>
      <trkpt lat="50.12871" lon="3.6841">
        <ele>140.01</ele>
        <time>2020-07-07T14:36:30Z</time>
      </trkpt>
      <trkpt lat="50.12874" lon="3.68419">
        <ele>140.01</ele>
        <time>2020-07-07T14:36:32Z</time>
      </trkpt>
      <trkpt lat="50.1288" lon="3.6843">
        <ele>140.01</ele>
        <time>2020-07-07T14:36:34Z</time>
      </trkpt>
      <trkpt lat="50.12882" lon="3.68436">
        <ele>139.53</ele>
        <time>2020-07-07T14:36:35Z</time>
      </trkpt>
      <trkpt lat="50.12884" lon="3.68442">
        <ele>139.53</ele>
        <time>2020-07-07T14:36:36Z</time>
      </trkpt>
      <trkpt lat="50.12886" lon="3.68448">
        <ele>139.53</ele>
        <time>2020-07-07T14:36:37Z</time>
      </trkpt>
      <trkpt lat="50.12887" lon="3.68453">
        <ele>140.01</ele>
        <time>2020-07-07T14:36:38Z</time>
      </trkpt>
      <trkpt lat="50.12896" lon="3.68475">
        <ele>140.01</ele>
        <time>2020-07-07T14:36:42Z</time>
      </trkpt>
      <trkpt lat="50.12909" lon="3.6852">
        <ele>140.01</ele>
        <time>2020-07-07T14:36:49Z</time>
      </trkpt>
      <trkpt lat="50.12912" lon="3.68527">
        <ele>140.01</ele>
        <time>2020-07-07T14:36:50Z</time>
      </trkpt>
      <trkpt lat="50.12918" lon="3.6855">
        <ele>140.01</ele>
        <time>2020-07-07T14:36:53Z</time>
      </trkpt>
      <trkpt lat="50.12921" lon="3.68558">
        <ele>140.01</ele>
        <time>2020-07-07T14:36:54Z</time>
      </trkpt>
      <trkpt lat="50.12929" lon="3.68583">
        <ele>140.01</ele>
        <time>2020-07-07T14:36:57Z</time>
      </trkpt>
      <trkpt lat="50.12935" lon="3.68598">
        <ele>140.01</ele>
        <time>2020-07-07T14:36:59Z</time>
      </trkpt>
      <trkpt lat="50.12938" lon="3.68607">
        <ele>140.01</ele>
        <time>2020-07-07T14:37:00Z</time>
      </trkpt>
      <trkpt lat="50.12943" lon="3.68634">
        <ele>139.05</ele>
        <time>2020-07-07T14:37:03Z</time>
      </trkpt>
      <trkpt lat="50.12941" lon="3.68643">
        <ele>139.05</ele>
        <time>2020-07-07T14:37:04Z</time>
      </trkpt>
      <trkpt lat="50.12938" lon="3.6865">
        <ele>138.57</ele>
        <time>2020-07-07T14:37:05Z</time>
      </trkpt>
      <trkpt lat="50.12934" lon="3.68656">
        <ele>138.57</ele>
        <time>2020-07-07T14:37:06Z</time>
      </trkpt>
      <trkpt lat="50.12929" lon="3.68662">
        <ele>138.57</ele>
        <time>2020-07-07T14:37:07Z</time>
      </trkpt>
      <trkpt lat="50.12888" lon="3.68714">
        <ele>137.61</ele>
        <time>2020-07-07T14:37:15Z</time>
      </trkpt>
      <trkpt lat="50.12881" lon="3.68711">
        <ele>137.13</ele>
        <time>2020-07-07T14:37:16Z</time>
      </trkpt>
      <trkpt lat="50.12875" lon="3.68706">
        <ele>136.64</ele>
        <time>2020-07-07T14:37:17Z</time>
      </trkpt>
      <trkpt lat="50.12829" lon="3.6865">
        <ele>136.16</ele>
        <time>2020-07-07T14:37:26Z</time>
      </trkpt>
      <trkpt lat="50.1282" lon="3.6864">
        <ele>136.16</ele>
        <time>2020-07-07T14:37:28Z</time>
      </trkpt>
      <trkpt lat="50.12808" lon="3.68621">
        <ele>136.16</ele>
        <time>2020-07-07T14:37:33Z</time>
      </trkpt>
      <trkpt lat="50.12808" lon="3.68619">
        <ele>136.16</ele>
        <time>2020-07-07T14:37:34Z</time>
      </trkpt>
      <trkpt lat="50.12807" lon="3.68618">
        <ele>136.16</ele>
        <time>2020-07-07T14:37:48Z</time>
      </trkpt>
      <trkpt lat="50.12807" lon="3.68605">
        <ele>136.16</ele>
        <time>2020-07-07T14:37:53Z</time>
      </trkpt>
      <trkpt lat="50.12816" lon="3.68573">
        <ele>137.61</ele>
        <time>2020-07-07T14:37:58Z</time>
      </trkpt>
      <trkpt lat="50.12835" lon="3.68484">
        <ele>141.45</ele>
        <time>2020-07-07T14:38:12Z</time>
      </trkpt>
      <trkpt lat="50.12854" lon="3.68415">
        <ele>144.34</ele>
        <time>2020-07-07T14:38:24Z</time>
      </trkpt>
      <trkpt lat="50.12888" lon="3.68356">
        <ele>147.22</ele>
        <time>2020-07-07T14:38:39Z</time>
      </trkpt>
      <trkpt lat="50.12946" lon="3.68318">
        <ele>144.82</ele>
        <time>2020-07-07T14:38:52Z</time>
      </trkpt>
      <trkpt lat="50.12965" lon="3.68312">
        <ele>144.34</ele>
        <time>2020-07-07T14:38:55Z</time>
      </trkpt>
      <trkpt lat="50.12971" lon="3.68312">
        <ele>144.34</ele>
        <time>2020-07-07T14:38:56Z</time>
      </trkpt>
      <trkpt lat="50.12976" lon="3.68311">
        <ele>144.34</ele>
        <time>2020-07-07T14:38:57Z</time>
      </trkpt>
      <trkpt lat="50.1298" lon="3.68309">
        <ele>144.34</ele>
        <time>2020-07-07T14:38:58Z</time>
      </trkpt>
      <trkpt lat="50.12983" lon="3.68303">
        <ele>144.34</ele>
        <time>2020-07-07T14:38:59Z</time>
      </trkpt>
      <trkpt lat="50.12984" lon="3.68296">
        <ele>144.34</ele>
        <time>2020-07-07T14:39:00Z</time>
      </trkpt>
      <trkpt lat="50.12981" lon="3.6829">
        <ele>144.34</ele>
        <time>2020-07-07T14:39:01Z</time>
      </trkpt>
      <trkpt lat="50.12978" lon="3.68286">
        <ele>144.34</ele>
        <time>2020-07-07T14:39:02Z</time>
      </trkpt>
      <trkpt lat="50.12974" lon="3.68282">
        <ele>144.34</ele>
        <time>2020-07-07T14:39:03Z</time>
      </trkpt>
      <trkpt lat="50.12969" lon="3.68277">
        <ele>144.34</ele>
        <time>2020-07-07T14:39:04Z</time>
      </trkpt>
      <trkpt lat="50.12965" lon="3.6827">
        <ele>144.34</ele>
        <time>2020-07-07T14:39:05Z</time>
      </trkpt>
      <trkpt lat="50.12963" lon="3.68264">
        <ele>144.34</ele>
        <time>2020-07-07T14:39:06Z</time>
      </trkpt>
      <trkpt lat="50.1296" lon="3.68256">
        <ele>144.34</ele>
        <time>2020-07-07T14:39:07Z</time>
      </trkpt>
      <trkpt lat="50.12919" lon="3.6814">
        <ele>143.37</ele>
        <time>2020-07-07T14:39:21Z</time>
      </trkpt>
      <trkpt lat="50.12917" lon="3.68132">
        <ele>143.37</ele>
        <time>2020-07-07T14:39:22Z</time>
      </trkpt>
      <trkpt lat="50.12907" lon="3.68092">
        <ele>143.37</ele>
        <time>2020-07-07T14:39:27Z</time>
      </trkpt>
      <trkpt lat="50.12906" lon="3.68084">
        <ele>143.37</ele>
        <time>2020-07-07T14:39:28Z</time>
      </trkpt>
      <trkpt lat="50.129" lon="3.68017">
        <ele>143.37</ele>
        <time>2020-07-07T14:39:36Z</time>
      </trkpt>
      <trkpt lat="50.12898" lon="3.68008">
        <ele>143.37</ele>
        <time>2020-07-07T14:39:37Z</time>
      </trkpt>
      <trkpt lat="50.12889" lon="3.67973">
        <ele>143.37</ele>
        <time>2020-07-07T14:39:41Z</time>
      </trkpt>
      <trkpt lat="50.12887" lon="3.67964">
        <ele>143.37</ele>
        <time>2020-07-07T14:39:42Z</time>
      </trkpt>
      <trkpt lat="50.12884" lon="3.67956">
        <ele>143.37</ele>
        <time>2020-07-07T14:39:43Z</time>
      </trkpt>
      <trkpt lat="50.12876" lon="3.67921">
        <ele>143.37</ele>
        <time>2020-07-07T14:39:47Z</time>
      </trkpt>
      <trkpt lat="50.12866" lon="3.6785">
        <ele>144.82</ele>
        <time>2020-07-07T14:39:55Z</time>
      </trkpt>
      <trkpt lat="50.12862" lon="3.6779">
        <ele>145.78</ele>
        <time>2020-07-07T14:40:03Z</time>
      </trkpt>
      <trkpt lat="50.12856" lon="3.67751">
        <ele>146.26</ele>
        <time>2020-07-07T14:40:09Z</time>
      </trkpt>
      <trkpt lat="50.12843" lon="3.67701">
        <ele>147.7</ele>
        <time>2020-07-07T14:40:17Z</time>
      </trkpt>
      <trkpt lat="50.12842" lon="3.67695">
        <ele>147.7</ele>
        <time>2020-07-07T14:40:18Z</time>
      </trkpt>
      <trkpt lat="50.1284" lon="3.67688">
        <ele>147.7</ele>
        <time>2020-07-07T14:40:19Z</time>
      </trkpt>
      <trkpt lat="50.12834" lon="3.67667">
        <ele>147.7</ele>
        <time>2020-07-07T14:40:22Z</time>
      </trkpt>
      <trkpt lat="50.12825" lon="3.67638">
        <ele>146.26</ele>
        <time>2020-07-07T14:40:26Z</time>
      </trkpt>
      <trkpt lat="50.12823" lon="3.67631">
        <ele>146.26</ele>
        <time>2020-07-07T14:40:27Z</time>
      </trkpt>
      <trkpt lat="50.12821" lon="3.67624">
        <ele>145.78</ele>
        <time>2020-07-07T14:40:28Z</time>
      </trkpt>
      <trkpt lat="50.12819" lon="3.67616">
        <ele>145.78</ele>
        <time>2020-07-07T14:40:29Z</time>
      </trkpt>
      <trkpt lat="50.12817" lon="3.67609">
        <ele>145.78</ele>
        <time>2020-07-07T14:40:30Z</time>
      </trkpt>
      <trkpt lat="50.12789" lon="3.67496">
        <ele>144.82</ele>
        <time>2020-07-07T14:40:43Z</time>
      </trkpt>
      <trkpt lat="50.12757" lon="3.67372">
        <ele>146.26</ele>
        <time>2020-07-07T14:41:00Z</time>
      </trkpt>
      <trkpt lat="50.12742" lon="3.67281">
        <ele>148.18</ele>
        <time>2020-07-07T14:41:15Z</time>
      </trkpt>
      <trkpt lat="50.12734" lon="3.67214">
        <ele>150.58</ele>
        <time>2020-07-07T14:41:27Z</time>
      </trkpt>
      <trkpt lat="50.1273" lon="3.67191">
        <ele>150.58</ele>
        <time>2020-07-07T14:41:31Z</time>
      </trkpt>
      <trkpt lat="50.12729" lon="3.67185">
        <ele>150.58</ele>
        <time>2020-07-07T14:41:32Z</time>
      </trkpt>
      <trkpt lat="50.12725" lon="3.67167">
        <ele>150.1</ele>
        <time>2020-07-07T14:41:35Z</time>
      </trkpt>
      <trkpt lat="50.12723" lon="3.67161">
        <ele>150.58</ele>
        <time>2020-07-07T14:41:36Z</time>
      </trkpt>
      <trkpt lat="50.1272" lon="3.67156">
        <ele>150.1</ele>
        <time>2020-07-07T14:41:37Z</time>
      </trkpt>
      <trkpt lat="50.12718" lon="3.67151">
        <ele>150.1</ele>
        <time>2020-07-07T14:41:38Z</time>
      </trkpt>
      <trkpt lat="50.12715" lon="3.67145">
        <ele>150.1</ele>
        <time>2020-07-07T14:41:39Z</time>
      </trkpt>
      <trkpt lat="50.12712" lon="3.6714">
        <ele>149.14</ele>
        <time>2020-07-07T14:41:40Z</time>
      </trkpt>
      <trkpt lat="50.12709" lon="3.67134">
        <ele>149.14</ele>
        <time>2020-07-07T14:41:41Z</time>
      </trkpt>
      <trkpt lat="50.12706" lon="3.67129">
        <ele>149.14</ele>
        <time>2020-07-07T14:41:42Z</time>
      </trkpt>
      <trkpt lat="50.12702" lon="3.67124">
        <ele>149.14</ele>
        <time>2020-07-07T14:41:43Z</time>
      </trkpt>
      <trkpt lat="50.12697" lon="3.6712">
        <ele>149.14</ele>
        <time>2020-07-07T14:41:44Z</time>
      </trkpt>
      <trkpt lat="50.12693" lon="3.67117">
        <ele>148.66</ele>
        <time>2020-07-07T14:41:45Z</time>
      </trkpt>
      <trkpt lat="50.12687" lon="3.67114">
        <ele>148.66</ele>
        <time>2020-07-07T14:41:46Z</time>
      </trkpt>
      <trkpt lat="50.12681" lon="3.67112">
        <ele>148.18</ele>
        <time>2020-07-07T14:41:47Z</time>
      </trkpt>
      <trkpt lat="50.12595" lon="3.67107">
        <ele>145.78</ele>
        <time>2020-07-07T14:42:00Z</time>
      </trkpt>
      <trkpt lat="50.12535" lon="3.67102">
        <ele>145.3</ele>
        <time>2020-07-07T14:42:09Z</time>
      </trkpt>
      <trkpt lat="50.12499" lon="3.67074">
        <ele>144.34</ele>
        <time>2020-07-07T14:42:15Z</time>
      </trkpt>
      <trkpt lat="50.12424" lon="3.66982">
        <ele>143.85</ele>
        <time>2020-07-07T14:42:30Z</time>
      </trkpt>
      <trkpt lat="50.12403" lon="3.66967">
        <ele>143.85</ele>
        <time>2020-07-07T14:42:34Z</time>
      </trkpt>
      <trkpt lat="50.12317" lon="3.66929">
        <ele>142.89</ele>
        <time>2020-07-07T14:42:49Z</time>
      </trkpt>
      <trkpt lat="50.12312" lon="3.66924">
        <ele>141.93</ele>
        <time>2020-07-07T14:42:50Z</time>
      </trkpt>
      <trkpt lat="50.12307" lon="3.66918">
        <ele>141.93</ele>
        <time>2020-07-07T14:42:51Z</time>
      </trkpt>
      <trkpt lat="50.12231" lon="3.66843">
        <ele>138.57</ele>
        <time>2020-07-07T14:43:04Z</time>
      </trkpt>
      <trkpt lat="50.12123" lon="3.66761">
        <ele>136.64</ele>
        <time>2020-07-07T14:43:21Z</time>
      </trkpt>
      <trkpt lat="50.12053" lon="3.66621">
        <ele>136.16</ele>
        <time>2020-07-07T14:43:40Z</time>
      </trkpt>
      <trkpt lat="50.1203" lon="3.66577">
        <ele>137.61</ele>
        <time>2020-07-07T14:43:47Z</time>
      </trkpt>
      <trkpt lat="50.11989" lon="3.66494">
        <ele>139.05</ele>
        <time>2020-07-07T14:44:02Z</time>
      </trkpt>
      <trkpt lat="50.11936" lon="3.66396">
        <ele>141.45</ele>
        <time>2020-07-07T14:44:21Z</time>
      </trkpt>
      <trkpt lat="50.11923" lon="3.66373">
        <ele>141.45</ele>
        <time>2020-07-07T14:44:26Z</time>
      </trkpt>
      <trkpt lat="50.11886" lon="3.66305">
        <ele>142.41</ele>
        <time>2020-07-07T14:44:40Z</time>
      </trkpt>
      <trkpt lat="50.11844" lon="3.66228">
        <ele>142.41</ele>
        <time>2020-07-07T14:44:56Z</time>
      </trkpt>
      <trkpt lat="50.1184" lon="3.66217">
        <ele>142.41</ele>
        <time>2020-07-07T14:44:58Z</time>
      </trkpt>
      <trkpt lat="50.11815" lon="3.66114">
        <ele>142.89</ele>
        <time>2020-07-07T14:45:15Z</time>
      </trkpt>
      <trkpt lat="50.11807" lon="3.66063">
        <ele>142.89</ele>
        <time>2020-07-07T14:45:23Z</time>
      </trkpt>
      <trkpt lat="50.11793" lon="3.65963">
        <ele>142.89</ele>
        <time>2020-07-07T14:45:38Z</time>
      </trkpt>
      <trkpt lat="50.11793" lon="3.65934">
        <ele>141.45</ele>
        <time>2020-07-07T14:45:42Z</time>
      </trkpt>
      <trkpt lat="50.11799" lon="3.65787">
        <ele>141.45</ele>
        <time>2020-07-07T14:46:02Z</time>
      </trkpt>
      <trkpt lat="50.11802" lon="3.65745">
        <ele>140.97</ele>
        <time>2020-07-07T14:46:08Z</time>
      </trkpt>
      <trkpt lat="50.11822" lon="3.65641">
        <ele>140.97</ele>
        <time>2020-07-07T14:46:25Z</time>
      </trkpt>
      <trkpt lat="50.1185" lon="3.65517">
        <ele>140.49</ele>
        <time>2020-07-07T14:46:43Z</time>
      </trkpt>
      <trkpt lat="50.11889" lon="3.65409">
        <ele>139.53</ele>
        <time>2020-07-07T14:47:00Z</time>
      </trkpt>
      <trkpt lat="50.11907" lon="3.65366">
        <ele>139.05</ele>
        <time>2020-07-07T14:47:07Z</time>
      </trkpt>
      <trkpt lat="50.11918" lon="3.6534">
        <ele>139.05</ele>
        <time>2020-07-07T14:47:11Z</time>
      </trkpt>
      <trkpt lat="50.11957" lon="3.6525">
        <ele>137.13</ele>
        <time>2020-07-07T14:47:24Z</time>
      </trkpt>
      <trkpt lat="50.11964" lon="3.65146">
        <ele>137.13</ele>
        <time>2020-07-07T14:47:37Z</time>
      </trkpt>
      <trkpt lat="50.11957" lon="3.65108">
        <ele>136.64</ele>
        <time>2020-07-07T14:47:42Z</time>
      </trkpt>
      <trkpt lat="50.11953" lon="3.65094">
        <ele>136.64</ele>
        <time>2020-07-07T14:47:44Z</time>
      </trkpt>
      <trkpt lat="50.11951" lon="3.65087">
        <ele>136.64</ele>
        <time>2020-07-07T14:47:45Z</time>
      </trkpt>
      <trkpt lat="50.11932" lon="3.65049">
        <ele>136.64</ele>
        <time>2020-07-07T14:47:52Z</time>
      </trkpt>
      <trkpt lat="50.11926" lon="3.65041">
        <ele>136.64</ele>
        <time>2020-07-07T14:47:54Z</time>
      </trkpt>
      <trkpt lat="50.11904" lon="3.65018">
        <ele>136.64</ele>
        <time>2020-07-07T14:48:00Z</time>
      </trkpt>
      <trkpt lat="50.119" lon="3.65015">
        <ele>136.64</ele>
        <time>2020-07-07T14:48:01Z</time>
      </trkpt>
      <trkpt lat="50.11837" lon="3.64955">
        <ele>136.64</ele>
        <time>2020-07-07T14:48:17Z</time>
      </trkpt>
      <trkpt lat="50.11754" lon="3.64876">
        <ele>135.68</ele>
        <time>2020-07-07T14:48:36Z</time>
      </trkpt>
      <trkpt lat="50.1175" lon="3.6487">
        <ele>135.68</ele>
        <time>2020-07-07T14:48:37Z</time>
      </trkpt>
      <trkpt lat="50.11747" lon="3.64864">
        <ele>135.68</ele>
        <time>2020-07-07T14:48:38Z</time>
      </trkpt>
      <trkpt lat="50.11736" lon="3.64838">
        <ele>135.68</ele>
        <time>2020-07-07T14:48:42Z</time>
      </trkpt>
      <trkpt lat="50.11734" lon="3.6483">
        <ele>135.68</ele>
        <time>2020-07-07T14:48:43Z</time>
      </trkpt>
      <trkpt lat="50.11731" lon="3.64801">
        <ele>137.13</ele>
        <time>2020-07-07T14:48:47Z</time>
      </trkpt>
      <trkpt lat="50.11723" lon="3.64696">
        <ele>139.53</ele>
        <time>2020-07-07T14:49:03Z</time>
      </trkpt>
      <trkpt lat="50.11715" lon="3.64591">
        <ele>141.93</ele>
        <time>2020-07-07T14:49:18Z</time>
      </trkpt>
      <trkpt lat="50.11708" lon="3.64498">
        <ele>141.93</ele>
        <time>2020-07-07T14:49:33Z</time>
      </trkpt>
      <trkpt lat="50.11701" lon="3.64415">
        <ele>141.93</ele>
        <time>2020-07-07T14:49:47Z</time>
      </trkpt>
      <trkpt lat="50.11693" lon="3.64302">
        <ele>141.93</ele>
        <time>2020-07-07T14:50:02Z</time>
      </trkpt>
      <trkpt lat="50.11685" lon="3.64181">
        <ele>142.89</ele>
        <time>2020-07-07T14:50:20Z</time>
      </trkpt>
      <trkpt lat="50.11684" lon="3.64175">
        <ele>142.89</ele>
        <time>2020-07-07T14:50:21Z</time>
      </trkpt>
      <trkpt lat="50.11684" lon="3.64168">
        <ele>142.89</ele>
        <time>2020-07-07T14:50:22Z</time>
      </trkpt>
      <trkpt lat="50.11683" lon="3.64161">
        <ele>142.89</ele>
        <time>2020-07-07T14:50:23Z</time>
      </trkpt>
      <trkpt lat="50.11678" lon="3.641">
        <ele>141.45</ele>
        <time>2020-07-07T14:50:31Z</time>
      </trkpt>
      <trkpt lat="50.11668" lon="3.63966">
        <ele>140.49</ele>
        <time>2020-07-07T14:50:46Z</time>
      </trkpt>
      <trkpt lat="50.11659" lon="3.6384">
        <ele>140.49</ele>
        <time>2020-07-07T14:51:01Z</time>
      </trkpt>
      <trkpt lat="50.11649" lon="3.6371">
        <ele>140.01</ele>
        <time>2020-07-07T14:51:16Z</time>
      </trkpt>
      <trkpt lat="50.11639" lon="3.63596">
        <ele>140.97</ele>
        <time>2020-07-07T14:51:29Z</time>
      </trkpt>
      <trkpt lat="50.11629" lon="3.63471">
        <ele>141.45</ele>
        <time>2020-07-07T14:51:46Z</time>
      </trkpt>
      <trkpt lat="50.11628" lon="3.63457">
        <ele>142.41</ele>
        <time>2020-07-07T14:51:48Z</time>
      </trkpt>
      <trkpt lat="50.11628" lon="3.6345">
        <ele>142.41</ele>
        <time>2020-07-07T14:51:49Z</time>
      </trkpt>
      <trkpt lat="50.11627" lon="3.63443">
        <ele>142.89</ele>
        <time>2020-07-07T14:51:50Z</time>
      </trkpt>
      <trkpt lat="50.11618" lon="3.63317">
        <ele>142.89</ele>
        <time>2020-07-07T14:52:06Z</time>
      </trkpt>
      <trkpt lat="50.1161" lon="3.63211">
        <ele>143.37</ele>
        <time>2020-07-07T14:52:18Z</time>
      </trkpt>
      <trkpt lat="50.11609" lon="3.63202">
        <ele>143.37</ele>
        <time>2020-07-07T14:52:19Z</time>
      </trkpt>
      <trkpt lat="50.11608" lon="3.63183">
        <ele>144.34</ele>
        <time>2020-07-07T14:52:21Z</time>
      </trkpt>
      <trkpt lat="50.11607" lon="3.63173">
        <ele>144.34</ele>
        <time>2020-07-07T14:52:22Z</time>
      </trkpt>
      <trkpt lat="50.11607" lon="3.63163">
        <ele>144.82</ele>
        <time>2020-07-07T14:52:23Z</time>
      </trkpt>
      <trkpt lat="50.11606" lon="3.63153">
        <ele>144.82</ele>
        <time>2020-07-07T14:52:24Z</time>
      </trkpt>
      <trkpt lat="50.11605" lon="3.63143">
        <ele>144.82</ele>
        <time>2020-07-07T14:52:25Z</time>
      </trkpt>
      <trkpt lat="50.11603" lon="3.63113">
        <ele>145.78</ele>
        <time>2020-07-07T14:52:28Z</time>
      </trkpt>
      <trkpt lat="50.11602" lon="3.63104">
        <ele>146.74</ele>
        <time>2020-07-07T14:52:29Z</time>
      </trkpt>
      <trkpt lat="50.11601" lon="3.63094">
        <ele>146.74</ele>
        <time>2020-07-07T14:52:30Z</time>
      </trkpt>
      <trkpt lat="50.11597" lon="3.63038">
        <ele>149.62</ele>
        <time>2020-07-07T14:52:38Z</time>
      </trkpt>
      <trkpt lat="50.1159" lon="3.62937">
        <ele>150.1</ele>
        <time>2020-07-07T14:52:53Z</time>
      </trkpt>
      <trkpt lat="50.11587" lon="3.62894">
        <ele>150.1</ele>
        <time>2020-07-07T14:52:59Z</time>
      </trkpt>
      <trkpt lat="50.11586" lon="3.62886">
        <ele>150.1</ele>
        <time>2020-07-07T14:53:00Z</time>
      </trkpt>
      <trkpt lat="50.11582" lon="3.62833">
        <ele>150.58</ele>
        <time>2020-07-07T14:53:07Z</time>
      </trkpt>
      <trkpt lat="50.11581" lon="3.62825">
        <ele>150.58</ele>
        <time>2020-07-07T14:53:08Z</time>
      </trkpt>
      <trkpt lat="50.11572" lon="3.62725">
        <ele>150.58</ele>
        <time>2020-07-07T14:53:21Z</time>
      </trkpt>
      <trkpt lat="50.1157" lon="3.627">
        <ele>149.14</ele>
        <time>2020-07-07T14:53:24Z</time>
      </trkpt>
      <trkpt lat="50.11565" lon="3.62639">
        <ele>148.66</ele>
        <time>2020-07-07T14:53:31Z</time>
      </trkpt>
      <trkpt lat="50.11557" lon="3.62528">
        <ele>145.3</ele>
        <time>2020-07-07T14:53:42Z</time>
      </trkpt>
      <trkpt lat="50.11554" lon="3.62478">
        <ele>144.82</ele>
        <time>2020-07-07T14:53:47Z</time>
      </trkpt>
      <trkpt lat="50.11558" lon="3.62472">
        <ele>144.82</ele>
        <time>2020-07-07T14:53:48Z</time>
      </trkpt>
      <trkpt lat="50.11563" lon="3.62473">
        <ele>144.34</ele>
        <time>2020-07-07T14:53:49Z</time>
      </trkpt>
      <trkpt lat="50.11571" lon="3.62474">
        <ele>144.34</ele>
        <time>2020-07-07T14:53:51Z</time>
      </trkpt>
      <trkpt lat="50.11631" lon="3.62471">
        <ele>145.78</ele>
        <time>2020-07-07T14:54:05Z</time>
      </trkpt>
      <trkpt lat="50.11635" lon="3.62471">
        <ele>145.78</ele>
        <time>2020-07-07T14:54:06Z</time>
      </trkpt>
      <trkpt lat="50.11679" lon="3.62467">
        <ele>147.7</ele>
        <time>2020-07-07T14:54:18Z</time>
      </trkpt>
      <trkpt lat="50.11683" lon="3.62467">
        <ele>147.7</ele>
        <time>2020-07-07T14:54:19Z</time>
      </trkpt>
      <trkpt lat="50.11688" lon="3.62467">
        <ele>147.7</ele>
        <time>2020-07-07T14:54:20Z</time>
      </trkpt>
      <trkpt lat="50.11696" lon="3.62467">
        <ele>148.18</ele>
        <time>2020-07-07T14:54:22Z</time>
      </trkpt>
      <trkpt lat="50.11719" lon="3.6247">
        <ele>148.66</ele>
        <time>2020-07-07T14:54:27Z</time>
      </trkpt>
      <trkpt lat="50.11723" lon="3.62472">
        <ele>148.66</ele>
        <time>2020-07-07T14:54:28Z</time>
      </trkpt>
      <trkpt lat="50.11727" lon="3.62474">
        <ele>148.66</ele>
        <time>2020-07-07T14:54:29Z</time>
      </trkpt>
      <trkpt lat="50.11731" lon="3.62478">
        <ele>149.14</ele>
        <time>2020-07-07T14:54:30Z</time>
      </trkpt>
      <trkpt lat="50.11735" lon="3.62483">
        <ele>149.14</ele>
        <time>2020-07-07T14:54:31Z</time>
      </trkpt>
      <trkpt lat="50.11738" lon="3.62488">
        <ele>149.62</ele>
        <time>2020-07-07T14:54:32Z</time>
      </trkpt>
      <trkpt lat="50.11741" lon="3.62493">
        <ele>150.1</ele>
        <time>2020-07-07T14:54:33Z</time>
      </trkpt>
      <trkpt lat="50.11774" lon="3.62554">
        <ele>152.03</ele>
        <time>2020-07-07T14:54:45Z</time>
      </trkpt>
      <trkpt lat="50.11805" lon="3.62614">
        <ele>153.47</ele>
        <time>2020-07-07T14:54:58Z</time>
      </trkpt>
      <trkpt lat="50.11814" lon="3.62629">
        <ele>153.47</ele>
        <time>2020-07-07T14:55:01Z</time>
      </trkpt>
      <trkpt lat="50.11816" lon="3.62635">
        <ele>153.47</ele>
        <time>2020-07-07T14:55:02Z</time>
      </trkpt>
      <trkpt lat="50.11823" lon="3.62646">
        <ele>153.47</ele>
        <time>2020-07-07T14:55:06Z</time>
      </trkpt>
      <trkpt lat="50.11821" lon="3.6264">
        <ele>153.47</ele>
        <time>2020-07-07T14:55:09Z</time>
      </trkpt>
      <trkpt lat="50.11819" lon="3.62637">
        <ele>153.47</ele>
        <time>2020-07-07T14:55:10Z</time>
      </trkpt>
      <trkpt lat="50.11813" lon="3.62625">
        <ele>153.47</ele>
        <time>2020-07-07T14:55:13Z</time>
      </trkpt>
      <trkpt lat="50.1181" lon="3.6262">
        <ele>153.47</ele>
        <time>2020-07-07T14:55:14Z</time>
      </trkpt>
      <trkpt lat="50.11796" lon="3.62593">
        <ele>153.47</ele>
        <time>2020-07-07T14:55:19Z</time>
      </trkpt>
      <trkpt lat="50.11793" lon="3.62587">
        <ele>153.47</ele>
        <time>2020-07-07T14:55:20Z</time>
      </trkpt>
      <trkpt lat="50.11791" lon="3.6258">
        <ele>153.47</ele>
        <time>2020-07-07T14:55:21Z</time>
      </trkpt>
      <trkpt lat="50.11792" lon="3.62571">
        <ele>153.47</ele>
        <time>2020-07-07T14:55:22Z</time>
      </trkpt>
      <trkpt lat="50.11794" lon="3.62566">
        <ele>153.47</ele>
        <time>2020-07-07T14:55:23Z</time>
      </trkpt>
      <trkpt lat="50.11797" lon="3.62559">
        <ele>152.03</ele>
        <time>2020-07-07T14:55:24Z</time>
      </trkpt>
      <trkpt lat="50.118" lon="3.62552">
        <ele>152.03</ele>
        <time>2020-07-07T14:55:25Z</time>
      </trkpt>
      <trkpt lat="50.11827" lon="3.62495">
        <ele>148.66</ele>
        <time>2020-07-07T14:55:32Z</time>
      </trkpt>
      <trkpt lat="50.11881" lon="3.62375">
        <ele>146.26</ele>
        <time>2020-07-07T14:55:44Z</time>
      </trkpt>
      <trkpt lat="50.11888" lon="3.62362">
        <ele>147.7</ele>
        <time>2020-07-07T14:55:45Z</time>
      </trkpt>
      <trkpt lat="50.11901" lon="3.62332">
        <ele>149.62</ele>
        <time>2020-07-07T14:55:48Z</time>
      </trkpt>
      <trkpt lat="50.11917" lon="3.62298">
        <ele>151.54</ele>
        <time>2020-07-07T14:55:52Z</time>
      </trkpt>
      <trkpt lat="50.11954" lon="3.62219">
        <ele>154.91</ele>
        <time>2020-07-07T14:56:05Z</time>
      </trkpt>
      <trkpt lat="50.11978" lon="3.62164">
        <ele>155.87</ele>
        <time>2020-07-07T14:56:15Z</time>
      </trkpt>
      <trkpt lat="50.1198" lon="3.62159">
        <ele>156.35</ele>
        <time>2020-07-07T14:56:16Z</time>
      </trkpt>
      <trkpt lat="50.11982" lon="3.62154">
        <ele>156.35</ele>
        <time>2020-07-07T14:56:17Z</time>
      </trkpt>
      <trkpt lat="50.11984" lon="3.62149">
        <ele>156.35</ele>
        <time>2020-07-07T14:56:18Z</time>
      </trkpt>
      <trkpt lat="50.11987" lon="3.62144">
        <ele>156.35</ele>
        <time>2020-07-07T14:56:19Z</time>
      </trkpt>
      <trkpt lat="50.12023" lon="3.62064">
        <ele>156.83</ele>
        <time>2020-07-07T14:56:35Z</time>
      </trkpt>
      <trkpt lat="50.1203" lon="3.62049">
        <ele>156.83</ele>
        <time>2020-07-07T14:56:38Z</time>
      </trkpt>
      <trkpt lat="50.12032" lon="3.62043">
        <ele>156.83</ele>
        <time>2020-07-07T14:56:39Z</time>
      </trkpt>
      <trkpt lat="50.12035" lon="3.62038">
        <ele>156.83</ele>
        <time>2020-07-07T14:56:40Z</time>
      </trkpt>
      <trkpt lat="50.12074" lon="3.61948">
        <ele>157.31</ele>
        <time>2020-07-07T14:56:56Z</time>
      </trkpt>
      <trkpt lat="50.12077" lon="3.61941">
        <ele>157.31</ele>
        <time>2020-07-07T14:56:57Z</time>
      </trkpt>
      <trkpt lat="50.12114" lon="3.61859">
        <ele>157.31</ele>
        <time>2020-07-07T14:57:10Z</time>
      </trkpt>
      <trkpt lat="50.1212" lon="3.61846">
        <ele>157.31</ele>
        <time>2020-07-07T14:57:12Z</time>
      </trkpt>
      <trkpt lat="50.12122" lon="3.6184">
        <ele>157.31</ele>
        <time>2020-07-07T14:57:13Z</time>
      </trkpt>
      <trkpt lat="50.12133" lon="3.61817">
        <ele>157.31</ele>
        <time>2020-07-07T14:57:17Z</time>
      </trkpt>
      <trkpt lat="50.12135" lon="3.61811">
        <ele>157.31</ele>
        <time>2020-07-07T14:57:18Z</time>
      </trkpt>
      <trkpt lat="50.12155" lon="3.61769">
        <ele>158.27</ele>
        <time>2020-07-07T14:57:26Z</time>
      </trkpt>
      <trkpt lat="50.1216" lon="3.61755">
        <ele>159.24</ele>
        <time>2020-07-07T14:57:28Z</time>
      </trkpt>
      <trkpt lat="50.12179" lon="3.61712">
        <ele>159.72</ele>
        <time>2020-07-07T14:57:34Z</time>
      </trkpt>
      <trkpt lat="50.12181" lon="3.61705">
        <ele>159.72</ele>
        <time>2020-07-07T14:57:35Z</time>
      </trkpt>
      <trkpt lat="50.12184" lon="3.61698">
        <ele>159.72</ele>
        <time>2020-07-07T14:57:36Z</time>
      </trkpt>
      <trkpt lat="50.12193" lon="3.61681">
        <ele>159.72</ele>
        <time>2020-07-07T14:57:39Z</time>
      </trkpt>
      <trkpt lat="50.12195" lon="3.61675">
        <ele>159.72</ele>
        <time>2020-07-07T14:57:40Z</time>
      </trkpt>
      <trkpt lat="50.122" lon="3.61663">
        <ele>159.72</ele>
        <time>2020-07-07T14:57:42Z</time>
      </trkpt>
      <trkpt lat="50.12202" lon="3.61657">
        <ele>159.72</ele>
        <time>2020-07-07T14:57:43Z</time>
      </trkpt>
      <trkpt lat="50.12205" lon="3.61651">
        <ele>159.72</ele>
        <time>2020-07-07T14:57:44Z</time>
      </trkpt>
      <trkpt lat="50.12217" lon="3.61626">
        <ele>159.72</ele>
        <time>2020-07-07T14:57:48Z</time>
      </trkpt>
      <trkpt lat="50.12228" lon="3.616">
        <ele>158.75</ele>
        <time>2020-07-07T14:57:52Z</time>
      </trkpt>
      <trkpt lat="50.12231" lon="3.61593">
        <ele>158.27</ele>
        <time>2020-07-07T14:57:53Z</time>
      </trkpt>
      <trkpt lat="50.12241" lon="3.61571">
        <ele>157.31</ele>
        <time>2020-07-07T14:57:56Z</time>
      </trkpt>
      <trkpt lat="50.12265" lon="3.61513">
        <ele>154.91</ele>
        <time>2020-07-07T14:58:02Z</time>
      </trkpt>
      <trkpt lat="50.1231" lon="3.6141">
        <ele>155.87</ele>
        <time>2020-07-07T14:58:14Z</time>
      </trkpt>
      <trkpt lat="50.12316" lon="3.61397">
        <ele>156.83</ele>
        <time>2020-07-07T14:58:16Z</time>
      </trkpt>
      <trkpt lat="50.12334" lon="3.61351">
        <ele>156.83</ele>
        <time>2020-07-07T14:58:23Z</time>
      </trkpt>
      <trkpt lat="50.12337" lon="3.61345">
        <ele>156.83</ele>
        <time>2020-07-07T14:58:24Z</time>
      </trkpt>
      <trkpt lat="50.12365" lon="3.61287">
        <ele>155.39</ele>
        <time>2020-07-07T14:58:32Z</time>
      </trkpt>
      <trkpt lat="50.12378" lon="3.61256">
        <ele>154.91</ele>
        <time>2020-07-07T14:58:36Z</time>
      </trkpt>
      <trkpt lat="50.12413" lon="3.61175">
        <ele>151.54</ele>
        <time>2020-07-07T14:58:46Z</time>
      </trkpt>
      <trkpt lat="50.12461" lon="3.61067">
        <ele>150.1</ele>
        <time>2020-07-07T14:58:56Z</time>
      </trkpt>
      <trkpt lat="50.1248" lon="3.61023">
        <ele>151.06</ele>
        <time>2020-07-07T14:59:01Z</time>
      </trkpt>
      <trkpt lat="50.12486" lon="3.61011">
        <ele>151.54</ele>
        <time>2020-07-07T14:59:03Z</time>
      </trkpt>
      <trkpt lat="50.12491" lon="3.60998">
        <ele>152.51</ele>
        <time>2020-07-07T14:59:05Z</time>
      </trkpt>
      <trkpt lat="50.12532" lon="3.60904">
        <ele>153.95</ele>
        <time>2020-07-07T14:59:20Z</time>
      </trkpt>
      <trkpt lat="50.12558" lon="3.60844">
        <ele>154.43</ele>
        <time>2020-07-07T14:59:29Z</time>
      </trkpt>
      <trkpt lat="50.12597" lon="3.60761">
        <ele>152.99</ele>
        <time>2020-07-07T14:59:42Z</time>
      </trkpt>
      <trkpt lat="50.12601" lon="3.60755">
        <ele>152.51</ele>
        <time>2020-07-07T14:59:43Z</time>
      </trkpt>
      <trkpt lat="50.12606" lon="3.60749">
        <ele>152.03</ele>
        <time>2020-07-07T14:59:44Z</time>
      </trkpt>
      <trkpt lat="50.12611" lon="3.60746">
        <ele>152.03</ele>
        <time>2020-07-07T14:59:45Z</time>
      </trkpt>
      <trkpt lat="50.12617" lon="3.60743">
        <ele>151.06</ele>
        <time>2020-07-07T14:59:46Z</time>
      </trkpt>
      <trkpt lat="50.12624" lon="3.60741">
        <ele>150.58</ele>
        <time>2020-07-07T14:59:47Z</time>
      </trkpt>
      <trkpt lat="50.12631" lon="3.60739">
        <ele>150.58</ele>
        <time>2020-07-07T14:59:48Z</time>
      </trkpt>
      <trkpt lat="50.12637" lon="3.60735">
        <ele>149.62</ele>
        <time>2020-07-07T14:59:49Z</time>
      </trkpt>
      <trkpt lat="50.12664" lon="3.60726">
        <ele>148.66</ele>
        <time>2020-07-07T14:59:53Z</time>
      </trkpt>
      <trkpt lat="50.12702" lon="3.60714">
        <ele>148.66</ele>
        <time>2020-07-07T15:00:03Z</time>
      </trkpt>
      <trkpt lat="50.12705" lon="3.60715">
        <ele>148.18</ele>
        <time>2020-07-07T15:00:08Z</time>
      </trkpt>
      <trkpt lat="50.12705" lon="3.60714">
        <ele>148.18</ele>
        <time>2020-07-07T15:00:09Z</time>
      </trkpt>
      <trkpt lat="50.12707" lon="3.60712">
        <ele>148.18</ele>
        <time>2020-07-07T15:00:14Z</time>
      </trkpt>
      <trkpt lat="50.12722" lon="3.60706">
        <ele>148.18</ele>
        <time>2020-07-07T15:00:19Z</time>
      </trkpt>
      <trkpt lat="50.12727" lon="3.60705">
        <ele>148.18</ele>
        <time>2020-07-07T15:00:20Z</time>
      </trkpt>
      <trkpt lat="50.12731" lon="3.60704">
        <ele>148.18</ele>
        <time>2020-07-07T15:00:21Z</time>
      </trkpt>
      <trkpt lat="50.12736" lon="3.60702">
        <ele>148.18</ele>
        <time>2020-07-07T15:00:22Z</time>
      </trkpt>
      <trkpt lat="50.12742" lon="3.607">
        <ele>148.18</ele>
        <time>2020-07-07T15:00:23Z</time>
      </trkpt>
      <trkpt lat="50.128" lon="3.60678">
        <ele>148.18</ele>
        <time>2020-07-07T15:00:34Z</time>
      </trkpt>
      <trkpt lat="50.1285" lon="3.60661">
        <ele>147.7</ele>
        <time>2020-07-07T15:00:43Z</time>
      </trkpt>
      <trkpt lat="50.12857" lon="3.6066">
        <ele>147.7</ele>
        <time>2020-07-07T15:00:50Z</time>
      </trkpt>
      <trkpt lat="50.12877" lon="3.60692">
        <ele>147.7</ele>
        <time>2020-07-07T15:01:00Z</time>
      </trkpt>
      <trkpt lat="50.1289" lon="3.60716">
        <ele>147.7</ele>
        <time>2020-07-07T15:01:05Z</time>
      </trkpt>
      <trkpt lat="50.12918" lon="3.60773">
        <ele>147.7</ele>
        <time>2020-07-07T15:01:16Z</time>
      </trkpt>
      <trkpt lat="50.12956" lon="3.60866">
        <ele>149.14</ele>
        <time>2020-07-07T15:01:32Z</time>
      </trkpt>
      <trkpt lat="50.12958" lon="3.60872">
        <ele>149.14</ele>
        <time>2020-07-07T15:01:33Z</time>
      </trkpt>
      <trkpt lat="50.12979" lon="3.60928">
        <ele>150.1</ele>
        <time>2020-07-07T15:01:42Z</time>
      </trkpt>
      <trkpt lat="50.12981" lon="3.60934">
        <ele>150.58</ele>
        <time>2020-07-07T15:01:43Z</time>
      </trkpt>
      <trkpt lat="50.12983" lon="3.6094">
        <ele>150.58</ele>
        <time>2020-07-07T15:01:44Z</time>
      </trkpt>
      <trkpt lat="50.13014" lon="3.61033">
        <ele>152.03</ele>
        <time>2020-07-07T15:01:59Z</time>
      </trkpt>
      <trkpt lat="50.13055" lon="3.61151">
        <ele>152.51</ele>
        <time>2020-07-07T15:02:16Z</time>
      </trkpt>
      <trkpt lat="50.13089" lon="3.61228">
        <ele>152.51</ele>
        <time>2020-07-07T15:02:27Z</time>
      </trkpt>
      <trkpt lat="50.1309" lon="3.61235">
        <ele>152.51</ele>
        <time>2020-07-07T15:02:28Z</time>
      </trkpt>
      <trkpt lat="50.13093" lon="3.61251">
        <ele>151.06</ele>
        <time>2020-07-07T15:02:30Z</time>
      </trkpt>
      <trkpt lat="50.13094" lon="3.61259">
        <ele>151.06</ele>
        <time>2020-07-07T15:02:31Z</time>
      </trkpt>
      <trkpt lat="50.13095" lon="3.61268">
        <ele>151.06</ele>
        <time>2020-07-07T15:02:32Z</time>
      </trkpt>
      <trkpt lat="50.13096" lon="3.61278">
        <ele>151.06</ele>
        <time>2020-07-07T15:02:33Z</time>
      </trkpt>
      <trkpt lat="50.13115" lon="3.61409">
        <ele>151.06</ele>
        <time>2020-07-07T15:02:46Z</time>
      </trkpt>
      <trkpt lat="50.13135" lon="3.61544">
        <ele>152.99</ele>
        <time>2020-07-07T15:03:01Z</time>
      </trkpt>
      <trkpt lat="50.1315" lon="3.61688">
        <ele>152.03</ele>
        <time>2020-07-07T15:03:16Z</time>
      </trkpt>
      <trkpt lat="50.13154" lon="3.61708">
        <ele>152.03</ele>
        <time>2020-07-07T15:03:18Z</time>
      </trkpt>
      <trkpt lat="50.13182" lon="3.61849">
        <ele>151.54</ele>
        <time>2020-07-07T15:03:31Z</time>
      </trkpt>
      <trkpt lat="50.13185" lon="3.61868">
        <ele>151.54</ele>
        <time>2020-07-07T15:03:33Z</time>
      </trkpt>
      <trkpt lat="50.13186" lon="3.61889">
        <ele>151.54</ele>
        <time>2020-07-07T15:03:35Z</time>
      </trkpt>
      <trkpt lat="50.13194" lon="3.62036">
        <ele>151.54</ele>
        <time>2020-07-07T15:03:49Z</time>
      </trkpt>
      <trkpt lat="50.13196" lon="3.62145">
        <ele>153.95</ele>
        <time>2020-07-07T15:04:02Z</time>
      </trkpt>
      <trkpt lat="50.13196" lon="3.62152">
        <ele>153.95</ele>
        <time>2020-07-07T15:04:03Z</time>
      </trkpt>
      <trkpt lat="50.13195" lon="3.62159">
        <ele>153.95</ele>
        <time>2020-07-07T15:04:04Z</time>
      </trkpt>
      <trkpt lat="50.13195" lon="3.62166">
        <ele>153.95</ele>
        <time>2020-07-07T15:04:05Z</time>
      </trkpt>
      <trkpt lat="50.13196" lon="3.62174">
        <ele>153.95</ele>
        <time>2020-07-07T15:04:06Z</time>
      </trkpt>
      <trkpt lat="50.13197" lon="3.62199">
        <ele>154.43</ele>
        <time>2020-07-07T15:04:09Z</time>
      </trkpt>
      <trkpt lat="50.13194" lon="3.62264">
        <ele>154.91</ele>
        <time>2020-07-07T15:04:17Z</time>
      </trkpt>
      <trkpt lat="50.13193" lon="3.62272">
        <ele>154.91</ele>
        <time>2020-07-07T15:04:18Z</time>
      </trkpt>
      <trkpt lat="50.13191" lon="3.62288">
        <ele>154.91</ele>
        <time>2020-07-07T15:04:20Z</time>
      </trkpt>
      <trkpt lat="50.1319" lon="3.62296">
        <ele>154.91</ele>
        <time>2020-07-07T15:04:21Z</time>
      </trkpt>
      <trkpt lat="50.1319" lon="3.62332">
        <ele>154.91</ele>
        <time>2020-07-07T15:04:25Z</time>
      </trkpt>
      <trkpt lat="50.132" lon="3.62404">
        <ele>154.91</ele>
        <time>2020-07-07T15:04:33Z</time>
      </trkpt>
      <trkpt lat="50.13226" lon="3.62507">
        <ele>154.91</ele>
        <time>2020-07-07T15:04:44Z</time>
      </trkpt>
      <trkpt lat="50.13248" lon="3.62639">
        <ele>156.35</ele>
        <time>2020-07-07T15:04:58Z</time>
      </trkpt>
      <trkpt lat="50.13249" lon="3.62681">
        <ele>156.35</ele>
        <time>2020-07-07T15:05:03Z</time>
      </trkpt>
      <trkpt lat="50.13239" lon="3.62772">
        <ele>158.27</ele>
        <time>2020-07-07T15:05:16Z</time>
      </trkpt>
      <trkpt lat="50.13238" lon="3.6278">
        <ele>158.27</ele>
        <time>2020-07-07T15:05:17Z</time>
      </trkpt>
      <trkpt lat="50.1322" lon="3.62901">
        <ele>159.72</ele>
        <time>2020-07-07T15:05:31Z</time>
      </trkpt>
      <trkpt lat="50.13219" lon="3.6291">
        <ele>159.72</ele>
        <time>2020-07-07T15:05:32Z</time>
      </trkpt>
      <trkpt lat="50.13219" lon="3.62919">
        <ele>159.72</ele>
        <time>2020-07-07T15:05:33Z</time>
      </trkpt>
      <trkpt lat="50.13218" lon="3.62928">
        <ele>159.72</ele>
        <time>2020-07-07T15:05:34Z</time>
      </trkpt>
      <trkpt lat="50.13216" lon="3.63069">
        <ele>160.68</ele>
        <time>2020-07-07T15:05:51Z</time>
      </trkpt>
      <trkpt lat="50.1322" lon="3.63233">
        <ele>161.16</ele>
        <time>2020-07-07T15:06:10Z</time>
      </trkpt>
      <trkpt lat="50.13238" lon="3.63357">
        <ele>161.16</ele>
        <time>2020-07-07T15:06:24Z</time>
      </trkpt>
      <trkpt lat="50.1327" lon="3.63528">
        <ele>158.75</ele>
        <time>2020-07-07T15:06:42Z</time>
      </trkpt>
      <trkpt lat="50.13271" lon="3.63538">
        <ele>158.75</ele>
        <time>2020-07-07T15:06:43Z</time>
      </trkpt>
      <trkpt lat="50.13272" lon="3.63548">
        <ele>158.75</ele>
        <time>2020-07-07T15:06:44Z</time>
      </trkpt>
      <trkpt lat="50.13274" lon="3.63558">
        <ele>158.75</ele>
        <time>2020-07-07T15:06:45Z</time>
      </trkpt>
      <trkpt lat="50.13288" lon="3.63672">
        <ele>160.2</ele>
        <time>2020-07-07T15:06:58Z</time>
      </trkpt>
      <trkpt lat="50.13297" lon="3.63741">
        <ele>160.68</ele>
        <time>2020-07-07T15:07:07Z</time>
      </trkpt>
      <trkpt lat="50.13311" lon="3.63873">
        <ele>161.16</ele>
        <time>2020-07-07T15:07:24Z</time>
      </trkpt>
      <trkpt lat="50.13324" lon="3.63994">
        <ele>162.12</ele>
        <time>2020-07-07T15:07:40Z</time>
      </trkpt>
      <trkpt lat="50.13325" lon="3.64013">
        <ele>162.12</ele>
        <time>2020-07-07T15:07:43Z</time>
      </trkpt>
      <trkpt lat="50.13326" lon="3.64019">
        <ele>162.12</ele>
        <time>2020-07-07T15:07:44Z</time>
      </trkpt>
      <trkpt lat="50.13332" lon="3.64047">
        <ele>162.12</ele>
        <time>2020-07-07T15:07:48Z</time>
      </trkpt>
      <trkpt lat="50.13332" lon="3.64055">
        <ele>162.12</ele>
        <time>2020-07-07T15:07:49Z</time>
      </trkpt>
      <trkpt lat="50.13343" lon="3.64193">
        <ele>161.16</ele>
        <time>2020-07-07T15:08:06Z</time>
      </trkpt>
      <trkpt lat="50.13369" lon="3.64326">
        <ele>160.68</ele>
        <time>2020-07-07T15:08:21Z</time>
      </trkpt>
      <trkpt lat="50.13386" lon="3.64465">
        <ele>160.2</ele>
        <time>2020-07-07T15:08:36Z</time>
      </trkpt>
      <trkpt lat="50.13386" lon="3.64474">
        <ele>160.2</ele>
        <time>2020-07-07T15:08:37Z</time>
      </trkpt>
      <trkpt lat="50.13387" lon="3.64483">
        <ele>160.2</ele>
        <time>2020-07-07T15:08:38Z</time>
      </trkpt>
      <trkpt lat="50.13392" lon="3.64527">
        <ele>161.16</ele>
        <time>2020-07-07T15:08:43Z</time>
      </trkpt>
      <trkpt lat="50.13393" lon="3.64536">
        <ele>161.16</ele>
        <time>2020-07-07T15:08:44Z</time>
      </trkpt>
      <trkpt lat="50.13408" lon="3.64637">
        <ele>161.64</ele>
        <time>2020-07-07T15:08:56Z</time>
      </trkpt>
      <trkpt lat="50.13409" lon="3.64646">
        <ele>161.64</ele>
        <time>2020-07-07T15:08:57Z</time>
      </trkpt>
      <trkpt lat="50.13411" lon="3.64654">
        <ele>161.64</ele>
        <time>2020-07-07T15:08:58Z</time>
      </trkpt>
      <trkpt lat="50.13412" lon="3.64663">
        <ele>161.64</ele>
        <time>2020-07-07T15:08:59Z</time>
      </trkpt>
      <trkpt lat="50.13414" lon="3.64672">
        <ele>161.64</ele>
        <time>2020-07-07T15:09:00Z</time>
      </trkpt>
      <trkpt lat="50.13419" lon="3.64714">
        <ele>161.64</ele>
        <time>2020-07-07T15:09:05Z</time>
      </trkpt>
      <trkpt lat="50.13425" lon="3.64757">
        <ele>161.64</ele>
        <time>2020-07-07T15:09:10Z</time>
      </trkpt>
      <trkpt lat="50.13431" lon="3.64814">
        <ele>162.12</ele>
        <time>2020-07-07T15:09:17Z</time>
      </trkpt>
      <trkpt lat="50.13432" lon="3.64823">
        <ele>162.12</ele>
        <time>2020-07-07T15:09:18Z</time>
      </trkpt>
      <trkpt lat="50.13434" lon="3.64832">
        <ele>162.12</ele>
        <time>2020-07-07T15:09:19Z</time>
      </trkpt>
      <trkpt lat="50.13436" lon="3.64841">
        <ele>162.12</ele>
        <time>2020-07-07T15:09:20Z</time>
      </trkpt>
      <trkpt lat="50.1344" lon="3.64851">
        <ele>162.12</ele>
        <time>2020-07-07T15:09:21Z</time>
      </trkpt>
      <trkpt lat="50.13446" lon="3.64872">
        <ele>162.12</ele>
        <time>2020-07-07T15:09:23Z</time>
      </trkpt>
      <trkpt lat="50.1347" lon="3.6496">
        <ele>163.56</ele>
        <time>2020-07-07T15:09:33Z</time>
      </trkpt>
      <trkpt lat="50.13502" lon="3.65095">
        <ele>162.12</ele>
        <time>2020-07-07T15:09:49Z</time>
      </trkpt>
      <trkpt lat="50.13512" lon="3.65168">
        <ele>162.12</ele>
        <time>2020-07-07T15:09:57Z</time>
      </trkpt>
      <trkpt lat="50.13514" lon="3.65178">
        <ele>162.12</ele>
        <time>2020-07-07T15:09:58Z</time>
      </trkpt>
      <trkpt lat="50.13532" lon="3.65298">
        <ele>162.12</ele>
        <time>2020-07-07T15:10:10Z</time>
      </trkpt>
      <trkpt lat="50.13571" lon="3.65458">
        <ele>162.12</ele>
        <time>2020-07-07T15:10:28Z</time>
      </trkpt>
      <trkpt lat="50.13604" lon="3.65563">
        <ele>162.12</ele>
        <time>2020-07-07T15:10:41Z</time>
      </trkpt>
      <trkpt lat="50.13629" lon="3.65611">
        <ele>163.56</ele>
        <time>2020-07-07T15:10:48Z</time>
      </trkpt>
      <trkpt lat="50.13633" lon="3.65619">
        <ele>163.56</ele>
        <time>2020-07-07T15:10:49Z</time>
      </trkpt>
      <trkpt lat="50.13637" lon="3.65626">
        <ele>163.56</ele>
        <time>2020-07-07T15:10:50Z</time>
      </trkpt>
      <trkpt lat="50.13659" lon="3.65668">
        <ele>165</ele>
        <time>2020-07-07T15:10:56Z</time>
      </trkpt>
      <trkpt lat="50.13713" lon="3.65745">
        <ele>166.45</ele>
        <time>2020-07-07T15:11:11Z</time>
      </trkpt>
      <trkpt lat="50.13716" lon="3.65749">
        <ele>166.45</ele>
        <time>2020-07-07T15:11:12Z</time>
      </trkpt>
      <trkpt lat="50.1372" lon="3.65753">
        <ele>166.45</ele>
        <time>2020-07-07T15:11:13Z</time>
      </trkpt>
      <trkpt lat="50.1373" lon="3.65764">
        <ele>166.45</ele>
        <time>2020-07-07T15:11:16Z</time>
      </trkpt>
      <trkpt lat="50.13734" lon="3.65768">
        <ele>166.45</ele>
        <time>2020-07-07T15:11:17Z</time>
      </trkpt>
      <trkpt lat="50.13753" lon="3.658">
        <ele>166.45</ele>
        <time>2020-07-07T15:11:24Z</time>
      </trkpt>
      <trkpt lat="50.13753" lon="3.65808">
        <ele>166.45</ele>
        <time>2020-07-07T15:11:25Z</time>
      </trkpt>
      <trkpt lat="50.13752" lon="3.65814">
        <ele>166.45</ele>
        <time>2020-07-07T15:11:26Z</time>
      </trkpt>
      <trkpt lat="50.13751" lon="3.65822">
        <ele>166.45</ele>
        <time>2020-07-07T15:11:27Z</time>
      </trkpt>
      <trkpt lat="50.1375" lon="3.6583">
        <ele>166.45</ele>
        <time>2020-07-07T15:11:28Z</time>
      </trkpt>
      <trkpt lat="50.1375" lon="3.65838">
        <ele>166.45</ele>
        <time>2020-07-07T15:11:29Z</time>
      </trkpt>
      <trkpt lat="50.13748" lon="3.6595">
        <ele>166.45</ele>
        <time>2020-07-07T15:11:43Z</time>
      </trkpt>
      <trkpt lat="50.13736" lon="3.66045">
        <ele>164.52</ele>
        <time>2020-07-07T15:11:54Z</time>
      </trkpt>
      <trkpt lat="50.13733" lon="3.66063">
        <ele>164.52</ele>
        <time>2020-07-07T15:11:56Z</time>
      </trkpt>
      <trkpt lat="50.13731" lon="3.66071">
        <ele>164.52</ele>
        <time>2020-07-07T15:11:57Z</time>
      </trkpt>
      <trkpt lat="50.13712" lon="3.66155">
        <ele>164.04</ele>
        <time>2020-07-07T15:12:06Z</time>
      </trkpt>
      <trkpt lat="50.13708" lon="3.66163">
        <ele>164.04</ele>
        <time>2020-07-07T15:12:07Z</time>
      </trkpt>
      <trkpt lat="50.13705" lon="3.66171">
        <ele>164.04</ele>
        <time>2020-07-07T15:12:08Z</time>
      </trkpt>
      <trkpt lat="50.13691" lon="3.6621">
        <ele>163.56</ele>
        <time>2020-07-07T15:12:13Z</time>
      </trkpt>
      <trkpt lat="50.13687" lon="3.66218">
        <ele>163.56</ele>
        <time>2020-07-07T15:12:14Z</time>
      </trkpt>
      <trkpt lat="50.13651" lon="3.66312">
        <ele>162.6</ele>
        <time>2020-07-07T15:12:24Z</time>
      </trkpt>
      <trkpt lat="50.13647" lon="3.66322">
        <ele>162.6</ele>
        <time>2020-07-07T15:12:25Z</time>
      </trkpt>
      <trkpt lat="50.13605" lon="3.66433">
        <ele>162.6</ele>
        <time>2020-07-07T15:12:36Z</time>
      </trkpt>
      <trkpt lat="50.13595" lon="3.66461">
        <ele>163.56</ele>
        <time>2020-07-07T15:12:39Z</time>
      </trkpt>
      <trkpt lat="50.13552" lon="3.66583">
        <ele>164.52</ele>
        <time>2020-07-07T15:12:54Z</time>
      </trkpt>
      <trkpt lat="50.13516" lon="3.66686">
        <ele>165.96</ele>
        <time>2020-07-07T15:13:10Z</time>
      </trkpt>
      <trkpt lat="50.13487" lon="3.66767">
        <ele>165.96</ele>
        <time>2020-07-07T15:13:22Z</time>
      </trkpt>
      <trkpt lat="50.13434" lon="3.66843">
        <ele>165.96</ele>
        <time>2020-07-07T15:13:36Z</time>
      </trkpt>
      <trkpt lat="50.13425" lon="3.66853">
        <ele>164.52</ele>
        <time>2020-07-07T15:13:38Z</time>
      </trkpt>
      <trkpt lat="50.13411" lon="3.66872">
        <ele>164.52</ele>
        <time>2020-07-07T15:13:41Z</time>
      </trkpt>
      <trkpt lat="50.13405" lon="3.66878">
        <ele>164.04</ele>
        <time>2020-07-07T15:13:42Z</time>
      </trkpt>
      <trkpt lat="50.13399" lon="3.66885">
        <ele>164.04</ele>
        <time>2020-07-07T15:13:43Z</time>
      </trkpt>
      <trkpt lat="50.13344" lon="3.66948">
        <ele>161.64</ele>
        <time>2020-07-07T15:13:51Z</time>
      </trkpt>
      <trkpt lat="50.13338" lon="3.66959">
        <ele>161.64</ele>
        <time>2020-07-07T15:13:52Z</time>
      </trkpt>
      <trkpt lat="50.13331" lon="3.66971">
        <ele>161.16</ele>
        <time>2020-07-07T15:13:53Z</time>
      </trkpt>
      <trkpt lat="50.13326" lon="3.66985">
        <ele>160.2</ele>
        <time>2020-07-07T15:13:54Z</time>
      </trkpt>
      <trkpt lat="50.13321" lon="3.66999">
        <ele>159.72</ele>
        <time>2020-07-07T15:13:55Z</time>
      </trkpt>
      <trkpt lat="50.13281" lon="3.6712">
        <ele>158.27</ele>
        <time>2020-07-07T15:14:04Z</time>
      </trkpt>
      <trkpt lat="50.13253" lon="3.67189">
        <ele>157.79</ele>
        <time>2020-07-07T15:14:14Z</time>
      </trkpt>
      <trkpt lat="50.13249" lon="3.67197">
        <ele>157.79</ele>
        <time>2020-07-07T15:14:15Z</time>
      </trkpt>
      <trkpt lat="50.13228" lon="3.67251">
        <ele>157.31</ele>
        <time>2020-07-07T15:14:21Z</time>
      </trkpt>
      <trkpt lat="50.13225" lon="3.67262">
        <ele>156.83</ele>
        <time>2020-07-07T15:14:22Z</time>
      </trkpt>
      <trkpt lat="50.13221" lon="3.67272">
        <ele>156.83</ele>
        <time>2020-07-07T15:14:23Z</time>
      </trkpt>
      <trkpt lat="50.13216" lon="3.67283">
        <ele>156.83</ele>
        <time>2020-07-07T15:14:24Z</time>
      </trkpt>
      <trkpt lat="50.13212" lon="3.67294">
        <ele>156.83</ele>
        <time>2020-07-07T15:14:25Z</time>
      </trkpt>
      <trkpt lat="50.13159" lon="3.67432">
        <ele>156.83</ele>
        <time>2020-07-07T15:14:39Z</time>
      </trkpt>
      <trkpt lat="50.13113" lon="3.67586">
        <ele>154.91</ele>
        <time>2020-07-07T15:14:54Z</time>
      </trkpt>
      <trkpt lat="50.13076" lon="3.67739">
        <ele>152.51</ele>
        <time>2020-07-07T15:15:06Z</time>
      </trkpt>
      <trkpt lat="50.13037" lon="3.67906">
        <ele>150.58</ele>
        <time>2020-07-07T15:15:19Z</time>
      </trkpt>
      <trkpt lat="50.13" lon="3.68106">
        <ele>147.7</ele>
        <time>2020-07-07T15:15:34Z</time>
      </trkpt>
      <trkpt lat="50.12978" lon="3.68259">
        <ele>145.78</ele>
        <time>2020-07-07T15:15:48Z</time>
      </trkpt>
      <trkpt lat="50.12972" lon="3.68275">
        <ele>145.78</ele>
        <time>2020-07-07T15:15:57Z</time>
      </trkpt>
      <trkpt lat="50.12962" lon="3.68292">
        <ele>145.3</ele>
        <time>2020-07-07T15:16:05Z</time>
      </trkpt>
      <trkpt lat="50.12956" lon="3.68304">
        <ele>145.3</ele>
        <time>2020-07-07T15:16:07Z</time>
      </trkpt>
      <trkpt lat="50.12952" lon="3.68308">
        <ele>145.3</ele>
        <time>2020-07-07T15:16:08Z</time>
      </trkpt>
      <trkpt lat="50.12946" lon="3.68311">
        <ele>145.3</ele>
        <time>2020-07-07T15:16:09Z</time>
      </trkpt>
      <trkpt lat="50.1294" lon="3.68313">
        <ele>145.3</ele>
        <time>2020-07-07T15:16:10Z</time>
      </trkpt>
      <trkpt lat="50.12935" lon="3.68315">
        <ele>145.3</ele>
        <time>2020-07-07T15:16:11Z</time>
      </trkpt>
      <trkpt lat="50.12931" lon="3.68317">
        <ele>145.3</ele>
        <time>2020-07-07T15:16:12Z</time>
      </trkpt>
      <trkpt lat="50.12913" lon="3.68327">
        <ele>146.26</ele>
        <time>2020-07-07T15:16:16Z</time>
      </trkpt>
      <trkpt lat="50.129" lon="3.68337">
        <ele>147.22</ele>
        <time>2020-07-07T15:16:19Z</time>
      </trkpt>
      <trkpt lat="50.12895" lon="3.68341">
        <ele>147.22</ele>
        <time>2020-07-07T15:16:20Z</time>
      </trkpt>
      <trkpt lat="50.1289" lon="3.68345">
        <ele>147.22</ele>
        <time>2020-07-07T15:16:21Z</time>
      </trkpt>
      <trkpt lat="50.12886" lon="3.6835">
        <ele>147.7</ele>
        <time>2020-07-07T15:16:22Z</time>
      </trkpt>
      <trkpt lat="50.12881" lon="3.68356">
        <ele>147.7</ele>
        <time>2020-07-07T15:16:23Z</time>
      </trkpt>
      <trkpt lat="50.12856" lon="3.68397">
        <ele>145.78</ele>
        <time>2020-07-07T15:16:29Z</time>
      </trkpt>
      <trkpt lat="50.12853" lon="3.68405">
        <ele>145.78</ele>
        <time>2020-07-07T15:16:30Z</time>
      </trkpt>
      <trkpt lat="50.12843" lon="3.6843">
        <ele>144.34</ele>
        <time>2020-07-07T15:16:33Z</time>
      </trkpt>
      <trkpt lat="50.1284" lon="3.6844">
        <ele>143.85</ele>
        <time>2020-07-07T15:16:34Z</time>
      </trkpt>
      <trkpt lat="50.12822" lon="3.68522">
        <ele>140.49</ele>
        <time>2020-07-07T15:16:44Z</time>
      </trkpt>
      <trkpt lat="50.12803" lon="3.68593">
        <ele>138.57</ele>
        <time>2020-07-07T15:16:56Z</time>
      </trkpt>
      <trkpt lat="50.12794" lon="3.6861">
        <ele>138.09</ele>
        <time>2020-07-07T15:16:59Z</time>
      </trkpt>
      <trkpt lat="50.12789" lon="3.68611">
        <ele>137.61</ele>
        <time>2020-07-07T15:17:00Z</time>
      </trkpt>
      <trkpt lat="50.12785" lon="3.68607">
        <ele>137.61</ele>
        <time>2020-07-07T15:17:01Z</time>
      </trkpt>
      <trkpt lat="50.12782" lon="3.68601">
        <ele>137.61</ele>
        <time>2020-07-07T15:17:02Z</time>
      </trkpt>
      <trkpt lat="50.12779" lon="3.68595">
        <ele>137.13</ele>
        <time>2020-07-07T15:17:03Z</time>
      </trkpt>
      <trkpt lat="50.12743" lon="3.68527">
        <ele>137.13</ele>
        <time>2020-07-07T15:17:16Z</time>
      </trkpt>
      <trkpt lat="50.12737" lon="3.68505">
        <ele>136.64</ele>
        <time>2020-07-07T15:17:22Z</time>
      </trkpt>
      <trkpt lat="50.12739" lon="3.685">
        <ele>136.64</ele>
        <time>2020-07-07T15:17:23Z</time>
      </trkpt>
      <trkpt lat="50.12741" lon="3.68497">
        <ele>136.64</ele>
        <time>2020-07-07T15:17:24Z</time>
      </trkpt>
      <trkpt lat="50.12744" lon="3.68493">
        <ele>136.64</ele>
        <time>2020-07-07T15:17:25Z</time>
      </trkpt>
      <trkpt lat="50.12748" lon="3.6849">
        <ele>136.64</ele>
        <time>2020-07-07T15:17:26Z</time>
      </trkpt>
      <trkpt lat="50.12751" lon="3.68488">
        <ele>136.64</ele>
        <time>2020-07-07T15:17:27Z</time>
      </trkpt>
      <trkpt lat="50.12799" lon="3.6845">
        <ele>137.61</ele>
        <time>2020-07-07T15:17:41Z</time>
      </trkpt>
      <trkpt lat="50.12802" lon="3.68437">
        <ele>138.09</ele>
        <time>2020-07-07T15:17:43Z</time>
      </trkpt>
      <trkpt lat="50.12801" lon="3.68431">
        <ele>138.09</ele>
        <time>2020-07-07T15:17:44Z</time>
      </trkpt>
      <trkpt lat="50.12798" lon="3.68425">
        <ele>138.09</ele>
        <time>2020-07-07T15:17:45Z</time>
      </trkpt>
      <trkpt lat="50.12795" lon="3.68419">
        <ele>138.09</ele>
        <time>2020-07-07T15:17:46Z</time>
      </trkpt>
      <trkpt lat="50.12792" lon="3.68412">
        <ele>138.09</ele>
        <time>2020-07-07T15:17:47Z</time>
      </trkpt>
      <trkpt lat="50.12789" lon="3.68404">
        <ele>138.09</ele>
        <time>2020-07-07T15:17:48Z</time>
      </trkpt>
      <trkpt lat="50.12757" lon="3.68307">
        <ele>138.09</ele>
        <time>2020-07-07T15:18:01Z</time>
      </trkpt>
      <trkpt lat="50.1271" lon="3.68176">
        <ele>136.64</ele>
        <time>2020-07-07T15:18:15Z</time>
      </trkpt>
      <trkpt lat="50.12692" lon="3.68138">
        <ele>135.68</ele>
        <time>2020-07-07T15:18:19Z</time>
      </trkpt>
      <trkpt lat="50.12687" lon="3.68128">
        <ele>135.68</ele>
        <time>2020-07-07T15:18:20Z</time>
      </trkpt>
      <trkpt lat="50.12681" lon="3.68118">
        <ele>135.68</ele>
        <time>2020-07-07T15:18:21Z</time>
      </trkpt>
      <trkpt lat="50.12629" lon="3.68007">
        <ele>135.2</ele>
        <time>2020-07-07T15:18:31Z</time>
      </trkpt>
      <trkpt lat="50.12604" lon="3.67956">
        <ele>135.2</ele>
        <time>2020-07-07T15:18:36Z</time>
      </trkpt>
      <trkpt lat="50.12574" lon="3.67906">
        <ele>135.2</ele>
        <time>2020-07-07T15:18:41Z</time>
      </trkpt>
      <trkpt lat="50.12568" lon="3.679">
        <ele>135.2</ele>
        <time>2020-07-07T15:18:42Z</time>
      </trkpt>
      <trkpt lat="50.12561" lon="3.67894">
        <ele>135.2</ele>
        <time>2020-07-07T15:18:43Z</time>
      </trkpt>
      <trkpt lat="50.12506" lon="3.67845">
        <ele>136.16</ele>
        <time>2020-07-07T15:18:54Z</time>
      </trkpt>
      <trkpt lat="50.1248" lon="3.6781">
        <ele>136.64</ele>
        <time>2020-07-07T15:19:06Z</time>
      </trkpt>
    </trkseg>
  </trk>
</gpx>